createdAt,value
2016-06-15T00:00:07.128Z,17.1
2016-06-15T00:00:17.128Z,17.2
2016-06-15T00:00:27.143Z,17.1
2016-06-15T00:00:37.159Z,17.1
2016-06-15T00:00:47.159Z,17.1
2016-06-15T00:00:57.159Z,17
2016-06-15T00:01:07.178Z,17.1
2016-06-15T00:01:17.178Z,17.1
2016-06-15T00:01:27.225Z,17.1
2016-06-15T00:01:37.178Z,17.1
2016-06-15T00:01:47.194Z,17.1
2016-06-15T00:01:57.210Z,17.1
2016-06-15T00:02:07.213Z,17.1
2016-06-15T00:02:17.306Z,17.1
2016-06-15T00:02:27.228Z,17
2016-06-15T00:02:37.228Z,17
2016-06-15T00:02:47.228Z,17
2016-06-15T00:02:57.291Z,17
2016-06-15T00:03:07.247Z,17
2016-06-15T00:03:17.247Z,17
2016-06-15T00:03:27.263Z,17.1
2016-06-15T00:03:37.309Z,17.2
2016-06-15T00:03:47.278Z,17.2
2016-06-15T00:03:57.278Z,17.1
2016-06-15T00:04:07.281Z,17.1
2016-06-15T00:04:17.312Z,17.1
2016-06-15T00:04:27.297Z,17.2
2016-06-15T00:04:37.312Z,17.2
2016-06-15T00:04:47.328Z,17.2
2016-06-15T00:04:57.406Z,17.3
2016-06-15T00:05:07.331Z,17.2
2016-06-15T00:05:17.831Z,17.2
2016-06-15T00:05:27.331Z,17.2
2016-06-15T00:05:37.347Z,17.2
2016-06-15T00:05:47.347Z,17.2
2016-06-15T00:05:57.347Z,17.1
2016-06-15T00:06:07.365Z,17.2
2016-06-15T00:06:17.365Z,17.2
2016-06-15T00:06:27.381Z,17.1
2016-06-15T00:06:37.381Z,17.1
2016-06-15T00:06:47.381Z,17.1
2016-06-15T00:06:57.412Z,17.1
2016-06-15T00:07:07.400Z,17
2016-06-15T00:07:17.400Z,16.9
2016-06-15T00:07:27.415Z,16.9
2016-06-15T00:07:37.415Z,17
2016-06-15T00:07:47.415Z,16.9
2016-06-15T00:07:57.431Z,16.9
2016-06-15T00:08:07.449Z,16.9
2016-06-15T00:08:17.449Z,16.8
2016-06-15T00:08:27.465Z,16.9
2016-06-15T00:08:37.481Z,16.8
2016-06-15T00:08:47.528Z,16.8
2016-06-15T00:08:57.465Z,16.8
2016-06-15T00:09:07.468Z,16.8
2016-06-15T00:09:17.484Z,16.8
2016-06-15T00:09:27.531Z,16.8
2016-06-15T00:09:37.499Z,16.8
2016-06-15T00:09:47.499Z,16.9
2016-06-15T00:09:57.515Z,16.9
2016-06-15T00:10:07.753Z,16.9
2016-06-15T00:10:17.519Z,16.8
2016-06-15T00:10:27.535Z,16.9
2016-06-15T00:10:37.535Z,16.8
2016-06-15T00:10:47.550Z,16.8
2016-06-15T00:10:57.550Z,16.8
2016-06-15T00:11:07.552Z,16.8
2016-06-15T00:11:17.568Z,16.9
2016-06-15T00:11:27.615Z,16.8
2016-06-15T00:11:37.568Z,16.8
2016-06-15T00:11:47.583Z,16.7
2016-06-15T00:11:57.583Z,16.8
2016-06-15T00:12:07.650Z,16.8
2016-06-15T00:12:17.603Z,16.7
2016-06-15T00:12:27.634Z,16.7
2016-06-15T00:12:37.619Z,16.7
2016-06-15T00:12:47.619Z,16.7
2016-06-15T00:12:57.619Z,16.7
2016-06-15T00:13:07.621Z,16.7
2016-06-15T00:13:17.636Z,16.7
2016-06-15T00:13:27.636Z,16.7
2016-06-15T00:13:37.636Z,16.7
2016-06-15T00:13:47.652Z,16.8
2016-06-15T00:13:57.683Z,16.7
2016-06-15T00:14:07.672Z,16.8
2016-06-15T00:14:17.672Z,16.7
2016-06-15T00:14:27.672Z,16.8
2016-06-15T00:14:37.687Z,16.8
2016-06-15T00:14:47.703Z,16.8
2016-06-15T00:14:57.703Z,16.8
2016-06-15T00:15:07.706Z,16.8
2016-06-15T00:15:17.721Z,16.8
2016-06-15T00:15:27.721Z,16.8
2016-06-15T00:15:37.721Z,16.8
2016-06-15T00:15:47.721Z,16.8
2016-06-15T00:15:57.753Z,16.7
2016-06-15T00:16:07.756Z,16.8
2016-06-15T00:16:17.756Z,16.7
2016-06-15T00:16:27.771Z,16.7
2016-06-15T00:16:37.803Z,16.6
2016-06-15T00:16:47.771Z,16.7
2016-06-15T00:16:57.787Z,16.7
2016-06-15T00:17:07.790Z,16.6
2016-06-15T00:17:17.806Z,16.7
2016-06-15T00:17:27.790Z,16.7
2016-06-15T00:17:37.806Z,16.6
2016-06-15T00:17:47.806Z,16.6
2016-06-15T00:17:57.806Z,16.6
2016-06-15T00:18:07.840Z,16.6
2016-06-15T00:18:17.824Z,16.6
2016-06-15T00:18:27.840Z,16.6
2016-06-15T00:18:37.840Z,16.6
2016-06-15T00:18:47.855Z,16.5
2016-06-15T00:18:57.855Z,16.5
2016-06-15T00:19:07.858Z,16.5
2016-06-15T00:19:18.233Z,16.5
2016-06-15T00:19:27.874Z,16.5
2016-06-15T00:19:37.874Z,16.5
2016-06-15T00:19:48.249Z,16.5
2016-06-15T00:19:57.890Z,16.5
2016-06-15T00:20:07.893Z,16.5
2016-06-15T00:20:17.986Z,16.5
2016-06-15T00:20:27.908Z,16.5
2016-06-15T00:20:37.955Z,16.5
2016-06-15T00:20:47.924Z,16.5
2016-06-15T00:20:57.924Z,16.5
2016-06-15T00:21:07.944Z,16.6
2016-06-15T00:21:17.944Z,16.6
2016-06-15T00:21:27.944Z,16.5
2016-06-15T00:21:37.959Z,16.6
2016-06-15T00:21:47.959Z,16.5
2016-06-15T00:21:57.990Z,16.5
2016-06-15T00:22:07.977Z,16.5
2016-06-15T00:22:17.977Z,16.5
2016-06-15T00:22:27.977Z,16.6
2016-06-15T00:22:37.992Z,16.7
2016-06-15T00:22:47.992Z,16.6
2016-06-15T00:22:58.008Z,16.5
2016-06-15T00:23:08.028Z,16.5
2016-06-15T00:23:18.012Z,16.5
2016-06-15T00:23:28.028Z,16.5
2016-06-15T00:23:38.028Z,16.6
2016-06-15T00:23:48.028Z,16.6
2016-06-15T00:23:58.043Z,16.6
2016-06-15T00:24:08.045Z,16.6
2016-06-15T00:24:18.061Z,16.6
2016-06-15T00:24:28.061Z,16.5
2016-06-15T00:24:38.061Z,16.5
2016-06-15T00:24:48.077Z,16.5
2016-06-15T00:24:58.077Z,16.5
2016-06-15T00:25:08.081Z,16.5
2016-06-15T00:25:18.096Z,16.6
2016-06-15T00:25:28.096Z,16.5
2016-06-15T00:25:38.112Z,16.5
2016-06-15T00:25:48.112Z,16.5
2016-06-15T00:25:58.112Z,16.5
2016-06-15T00:26:08.129Z,16.5
2016-06-15T00:26:18.129Z,16.4
2016-06-15T00:26:28.145Z,16.4
2016-06-15T00:26:38.145Z,16.4
2016-06-15T00:26:48.145Z,16.4
2016-06-15T00:26:58.161Z,16.4
2016-06-15T00:27:08.165Z,16.5
2016-06-15T00:27:18.165Z,16.5
2016-06-15T00:27:28.196Z,16.5
2016-06-15T00:27:38.180Z,16.5
2016-06-15T00:27:48.196Z,16.5
2016-06-15T00:27:58.196Z,16.5
2016-06-15T00:28:08.198Z,16.5
2016-06-15T00:28:18.198Z,16.6
2016-06-15T00:28:28.214Z,16.5
2016-06-15T00:28:38.214Z,16.6
2016-06-15T00:28:48.229Z,16.6
2016-06-15T00:28:58.229Z,16.5
2016-06-15T00:29:08.249Z,16.5
2016-06-15T00:29:18.264Z,16.5
2016-06-15T00:29:28.249Z,16.5
2016-06-15T00:29:38.264Z,16.5
2016-06-15T00:29:48.264Z,16.5
2016-06-15T00:29:58.264Z,16.5
2016-06-15T00:30:08.266Z,16.5
2016-06-15T00:30:18.298Z,16.5
2016-06-15T00:30:28.282Z,16.5
2016-06-15T00:30:38.298Z,16.6
2016-06-15T00:30:48.298Z,16.5
2016-06-15T00:30:58.329Z,16.5
2016-06-15T00:31:08.349Z,16.5
2016-06-15T00:31:18.333Z,16.5
2016-06-15T00:31:28.333Z,16.5
2016-06-15T00:31:38.333Z,16.5
2016-06-15T00:31:48.333Z,16.5
2016-06-15T00:31:58.349Z,16.5
2016-06-15T00:32:08.352Z,16.6
2016-06-15T00:32:18.352Z,16.5
2016-06-15T00:32:28.367Z,16.5
2016-06-15T00:32:38.367Z,16.5
2016-06-15T00:32:48.398Z,16.5
2016-06-15T00:32:58.383Z,16.5
2016-06-15T00:33:08.386Z,16.5
2016-06-15T00:33:18.401Z,16.7
2016-06-15T00:33:28.401Z,16.6
2016-06-15T00:33:38.401Z,16.5
2016-06-15T00:33:48.417Z,16.7
2016-06-15T00:33:58.433Z,16.6
2016-06-15T00:34:08.420Z,16.6
2016-06-15T00:34:18.436Z,16.5
2016-06-15T00:34:28.920Z,16.5
2016-06-15T00:34:38.545Z,16.5
2016-06-15T00:34:48.451Z,16.6
2016-06-15T00:34:58.467Z,16.5
2016-06-15T00:35:08.470Z,16.6
2016-06-15T00:35:18.486Z,16.6
2016-06-15T00:35:28.564Z,16.6
2016-06-15T00:35:38.486Z,16.6
2016-06-15T00:35:48.486Z,16.5
2016-06-15T00:35:58.501Z,16.5
2016-06-15T00:36:08.521Z,16.6
2016-06-15T00:36:18.505Z,16.5
2016-06-15T00:36:28.521Z,16.5
2016-06-15T00:36:38.521Z,16.5
2016-06-15T00:36:48.521Z,16.6
2016-06-15T00:36:58.536Z,16.5
2016-06-15T00:37:08.538Z,16.5
2016-06-15T00:37:18.554Z,16.5
2016-06-15T00:37:28.554Z,16.5
2016-06-15T00:37:38.554Z,16.5
2016-06-15T00:37:48.570Z,16.5
2016-06-15T00:37:58.570Z,16.5
2016-06-15T00:38:08.573Z,16.5
2016-06-15T00:38:18.588Z,16.5
2016-06-15T00:38:28.588Z,16.5
2016-06-15T00:38:38.588Z,16.5
2016-06-15T00:38:48.604Z,16.5
2016-06-15T00:38:58.604Z,16.5
2016-06-15T00:39:08.624Z,16.5
2016-06-15T00:39:18.624Z,16.5
2016-06-15T00:39:28.624Z,16.5
2016-06-15T00:39:38.639Z,16.5
2016-06-15T00:39:48.639Z,16.6
2016-06-15T00:39:58.639Z,16.5
2016-06-15T00:40:08.658Z,16.5
2016-06-15T00:40:18.658Z,16.5
2016-06-15T00:40:28.673Z,16.5
2016-06-15T00:40:38.673Z,16.5
2016-06-15T00:40:48.673Z,16.4
2016-06-15T00:40:58.689Z,16.5
2016-06-15T00:41:08.707Z,16.4
2016-06-15T00:41:18.691Z,16.5
2016-06-15T00:41:28.707Z,16.4
2016-06-15T00:41:38.722Z,16.4
2016-06-15T00:41:48.722Z,16.5
2016-06-15T00:41:58.722Z,16.4
2016-06-15T00:42:08.726Z,16.4
2016-06-15T00:42:18.742Z,16.4
2016-06-15T00:42:28.742Z,16.4
2016-06-15T00:42:38.742Z,16.4
2016-06-15T00:42:48.758Z,16.4
2016-06-15T00:42:58.758Z,16.4
2016-06-15T00:43:08.776Z,16.4
2016-06-15T00:43:18.776Z,16.4
2016-06-15T00:43:28.776Z,16.5
2016-06-15T00:43:38.792Z,16.5
2016-06-15T00:43:48.792Z,16.5
2016-06-15T00:43:58.792Z,16.5
2016-06-15T00:44:08.810Z,16.5
2016-06-15T00:44:18.810Z,16.4
2016-06-15T00:44:28.826Z,16.4
2016-06-15T00:44:38.826Z,16.4
2016-06-15T00:44:48.842Z,16.4
2016-06-15T00:44:58.842Z,16.5
2016-06-15T00:45:08.845Z,16.4
2016-06-15T00:45:18.860Z,16.5
2016-06-15T00:45:28.860Z,16.5
2016-06-15T00:45:38.860Z,16.6
2016-06-15T00:45:48.876Z,16.5
2016-06-15T00:45:58.876Z,16.5
2016-06-15T00:46:08.879Z,16.5
2016-06-15T00:46:18.895Z,16.5
2016-06-15T00:46:28.926Z,16.6
2016-06-15T00:46:38.910Z,16.5
2016-06-15T00:46:48.910Z,16.5
2016-06-15T00:46:58.910Z,16.5
2016-06-15T00:47:08.929Z,16.5
2016-06-15T00:47:18.929Z,16.5
2016-06-15T00:47:28.944Z,16.5
2016-06-15T00:47:38.944Z,16.5
2016-06-15T00:47:48.944Z,16.4
2016-06-15T00:47:59.038Z,16.4
2016-06-15T00:48:08.963Z,16.5
2016-06-15T00:48:18.963Z,16.5
2016-06-15T00:48:28.963Z,16.5
2016-06-15T00:48:38.994Z,16.4
2016-06-15T00:48:48.994Z,16.4
2016-06-15T00:48:58.994Z,16.4
2016-06-15T00:49:08.997Z,16.5
2016-06-15T00:49:19.075Z,16.4
2016-06-15T00:49:29.013Z,16.5
2016-06-15T00:49:39.497Z,16.4
2016-06-15T00:49:49.013Z,16.5
2016-06-15T00:49:59.060Z,16.5
2016-06-15T00:50:09.032Z,16.4
2016-06-15T00:50:19.032Z,16.4
2016-06-15T00:50:29.047Z,16.4
2016-06-15T00:50:39.063Z,16.4
2016-06-15T00:50:49.063Z,16.4
2016-06-15T00:50:59.063Z,16.5
2016-06-15T00:51:09.067Z,16.4
2016-06-15T00:51:19.082Z,16.4
2016-06-15T00:51:29.082Z,16.5
2016-06-15T00:51:39.098Z,16.5
2016-06-15T00:51:49.098Z,16.5
2016-06-15T00:51:59.114Z,16.5
2016-06-15T00:52:09.116Z,16.5
2016-06-15T00:52:19.116Z,16.5
2016-06-15T00:52:29.116Z,16.5
2016-06-15T00:52:39.131Z,16.5
2016-06-15T00:52:49.131Z,16.5
2016-06-15T00:52:59.147Z,16.5
2016-06-15T00:53:09.167Z,16.6
2016-06-15T00:53:19.151Z,16.6
2016-06-15T00:53:29.182Z,16.6
2016-06-15T00:53:39.167Z,16.6
2016-06-15T00:53:49.167Z,16.6
2016-06-15T00:53:59.182Z,16.6
2016-06-15T00:54:09.185Z,16.6
2016-06-15T00:54:19.201Z,16.5
2016-06-15T00:54:29.201Z,16.6
2016-06-15T00:54:39.201Z,16.7
2016-06-15T00:54:49.216Z,16.6
2016-06-15T00:54:59.232Z,16.6
2016-06-15T00:55:09.266Z,16.6
2016-06-15T00:55:19.235Z,16.6
2016-06-15T00:55:29.251Z,16.5
2016-06-15T00:55:39.235Z,16.7
2016-06-15T00:55:49.282Z,16.6
2016-06-15T00:55:59.251Z,16.6
2016-06-15T00:56:09.269Z,16.7
2016-06-15T00:56:19.269Z,16.6
2016-06-15T00:56:29.332Z,16.7
2016-06-15T00:56:39.285Z,16.6
2016-06-15T00:56:49.301Z,16.7
2016-06-15T00:56:59.301Z,16.7
2016-06-15T00:57:09.304Z,16.6
2016-06-15T00:57:19.319Z,16.7
2016-06-15T00:57:29.319Z,16.7
2016-06-15T00:57:39.335Z,16.6
2016-06-15T00:57:49.335Z,16.6
2016-06-15T00:57:59.335Z,16.7
2016-06-15T00:58:09.369Z,16.6
2016-06-15T00:58:19.369Z,16.6
2016-06-15T00:58:29.697Z,16.7
2016-06-15T00:58:39.791Z,16.6
2016-06-15T00:58:49.697Z,16.6
2016-06-15T00:58:59.900Z,16.7
2016-06-15T00:59:10.017Z,16.6
2016-06-15T00:59:19.814Z,16.6
2016-06-15T00:59:29.970Z,16.6
2016-06-15T00:59:39.783Z,16.6
2016-06-15T00:59:49.923Z,16.6
2016-06-15T00:59:59.861Z,16.4
2016-06-15T01:00:09.901Z,16.5
2016-06-15T01:00:20.010Z,16.6
2016-06-15T01:00:29.917Z,16.5
2016-06-15T01:00:39.995Z,16.5
2016-06-15T01:00:49.870Z,16.6
2016-06-15T01:00:59.542Z,16.5
2016-06-15T01:01:09.596Z,16.6
2016-06-15T01:01:19.674Z,16.6
2016-06-15T01:01:29.612Z,16.5
2016-06-15T01:01:39.612Z,16.5
2016-06-15T01:01:49.643Z,16.6
2016-06-15T01:01:59.612Z,16.5
2016-06-15T01:02:09.698Z,16.5
2016-06-15T01:02:19.745Z,16.6
2016-06-15T01:02:29.682Z,16.5
2016-06-15T01:02:39.682Z,16.5
2016-06-15T01:02:49.729Z,16.6
2016-06-15T01:02:59.745Z,16.5
2016-06-15T01:03:10.000Z,16.5
2016-06-15T01:03:19.719Z,16.5
2016-06-15T01:03:29.734Z,16.5
2016-06-15T01:03:39.750Z,16.6
2016-06-15T01:03:49.750Z,16.6
2016-06-15T01:03:59.766Z,16.6
2016-06-15T01:04:09.782Z,16.5
2016-06-15T01:04:19.828Z,16.4
2016-06-15T01:04:29.797Z,16.6
2016-06-15T01:04:39.797Z,16.5
2016-06-15T01:04:49.797Z,16.5
2016-06-15T01:04:59.797Z,16.6
2016-06-15T01:05:09.829Z,16.5
2016-06-15T01:05:20.282Z,16.6
2016-06-15T01:05:29.829Z,16.6
2016-06-15T01:05:39.844Z,16.5
2016-06-15T01:05:49.844Z,16.6
2016-06-15T01:05:59.860Z,16.5
2016-06-15T01:06:09.876Z,16.5
2016-06-15T01:06:19.892Z,16.5
2016-06-15T01:06:29.876Z,16.5
2016-06-15T01:06:39.892Z,16.4
2016-06-15T01:06:49.892Z,16.5
2016-06-15T01:06:59.907Z,16.5
2016-06-15T01:07:09.923Z,16.5
2016-06-15T01:07:19.939Z,16.4
2016-06-15T01:07:29.939Z,16.4
2016-06-15T01:07:39.939Z,16.5
2016-06-15T01:07:49.939Z,16.5
2016-06-15T01:07:59.955Z,16.4
2016-06-15T01:08:10.026Z,16.4
2016-06-15T01:08:19.979Z,16.4
2016-06-15T01:08:29.979Z,16.4
2016-06-15T01:08:39.995Z,16.4
2016-06-15T01:08:50.073Z,16.4
2016-06-15T01:08:59.995Z,16.4
2016-06-15T01:09:10.019Z,16.4
2016-06-15T01:09:20.019Z,16.4
2016-06-15T01:09:30.082Z,16.4
2016-06-15T01:09:40.035Z,16.4
2016-06-15T01:09:50.098Z,16.4
2016-06-15T01:10:00.051Z,16.4
2016-06-15T01:10:10.105Z,16.3
2016-06-15T01:10:20.073Z,16.4
2016-06-15T01:10:30.058Z,16.4
2016-06-15T01:10:40.073Z,16.4
2016-06-15T01:10:50.089Z,16.4
2016-06-15T01:11:00.089Z,16.4
2016-06-15T01:11:10.098Z,16.5
2016-06-15T01:11:20.114Z,16.5
2016-06-15T01:11:30.114Z,16.5
2016-06-15T01:11:40.114Z,16.5
2016-06-15T01:11:50.129Z,16.5
2016-06-15T01:12:00.129Z,16.5
2016-06-15T01:12:10.152Z,16.6
2016-06-15T01:12:20.152Z,16.5
2016-06-15T01:12:30.152Z,16.6
2016-06-15T01:12:40.167Z,16.5
2016-06-15T01:12:50.167Z,16.6
2016-06-15T01:13:00.167Z,16.5
2016-06-15T01:13:10.189Z,16.5
2016-06-15T01:13:20.189Z,16.5
2016-06-15T01:13:30.189Z,16.5
2016-06-15T01:13:40.205Z,16.5
2016-06-15T01:13:50.205Z,16.6
2016-06-15T01:14:00.236Z,16.5
2016-06-15T01:14:10.224Z,16.5
2016-06-15T01:14:20.224Z,16.5
2016-06-15T01:14:30.240Z,16.5
2016-06-15T01:14:40.240Z,16.5
2016-06-15T01:14:50.240Z,16.6
2016-06-15T01:15:00.256Z,16.5
2016-06-15T01:15:10.261Z,16.5
2016-06-15T01:15:20.292Z,16.5
2016-06-15T01:15:30.276Z,16.5
2016-06-15T01:15:40.276Z,16.5
2016-06-15T01:15:50.276Z,16.5
2016-06-15T01:16:00.292Z,16.5
2016-06-15T01:16:10.312Z,16.6
2016-06-15T01:16:20.312Z,16.5
2016-06-15T01:16:30.312Z,16.5
2016-06-15T01:16:40.328Z,16.6
2016-06-15T01:16:50.328Z,16.5
2016-06-15T01:17:00.328Z,16.5
2016-06-15T01:17:10.348Z,16.5
2016-06-15T01:17:20.348Z,16.4
2016-06-15T01:17:30.348Z,16.5
2016-06-15T01:17:40.363Z,16.6
2016-06-15T01:17:50.363Z,16.5
2016-06-15T01:18:00.363Z,16.6
2016-06-15T01:18:10.384Z,16.7
2016-06-15T01:18:20.384Z,16.6
2016-06-15T01:18:30.400Z,16.6
2016-06-15T01:18:40.400Z,16.6
2016-06-15T01:18:50.400Z,16.6
2016-06-15T01:19:00.415Z,16.7
2016-06-15T01:19:10.418Z,16.8
2016-06-15T01:19:20.418Z,16.7
2016-06-15T01:19:30.449Z,16.7
2016-06-15T01:19:40.434Z,16.7
2016-06-15T01:19:50.434Z,16.7
2016-06-15T01:20:00.449Z,16.8
2016-06-15T01:20:10.594Z,16.7
2016-06-15T01:20:20.469Z,16.8
2016-06-15T01:20:31.110Z,16.7
2016-06-15T01:20:40.469Z,16.7
2016-06-15T01:20:50.485Z,16.7
2016-06-15T01:21:00.485Z,16.8
2016-06-15T01:21:10.504Z,16.8
2016-06-15T01:21:20.504Z,16.7
2016-06-15T01:21:30.504Z,16.7
2016-06-15T01:21:40.520Z,16.7
2016-06-15T01:21:50.520Z,16.8
2016-06-15T01:22:00.520Z,16.7
2016-06-15T01:22:10.540Z,16.7
2016-06-15T01:22:20.540Z,16.7
2016-06-15T01:22:30.540Z,16.7
2016-06-15T01:22:40.555Z,16.7
2016-06-15T01:22:50.555Z,16.7
2016-06-15T01:23:00.571Z,16.7
2016-06-15T01:23:10.574Z,16.7
2016-06-15T01:23:20.574Z,16.7
2016-06-15T01:23:30.589Z,16.7
2016-06-15T01:23:40.589Z,16.8
2016-06-15T01:23:50.605Z,16.8
2016-06-15T01:24:00.605Z,16.8
2016-06-15T01:24:10.608Z,16.8
2016-06-15T01:24:20.624Z,16.8
2016-06-15T01:24:30.624Z,16.7
2016-06-15T01:24:40.624Z,16.8
2016-06-15T01:24:50.639Z,16.8
2016-06-15T01:25:00.639Z,16.8
2016-06-15T01:25:10.642Z,16.8
2016-06-15T01:25:20.658Z,16.8
2016-06-15T01:25:30.658Z,16.9
2016-06-15T01:25:40.674Z,16.8
2016-06-15T01:25:50.674Z,16.8
2016-06-15T01:26:00.674Z,16.8
2016-06-15T01:26:10.692Z,16.8
2016-06-15T01:26:20.692Z,16.9
2016-06-15T01:26:30.692Z,16.7
2016-06-15T01:26:40.708Z,16.7
2016-06-15T01:26:50.708Z,16.7
2016-06-15T01:27:00.723Z,16.8
2016-06-15T01:27:10.727Z,16.7
2016-06-15T01:27:20.727Z,16.7
2016-06-15T01:27:30.743Z,16.8
2016-06-15T01:27:40.759Z,16.7
2016-06-15T01:27:50.743Z,16.7
2016-06-15T01:28:00.759Z,16.7
2016-06-15T01:28:10.761Z,16.7
2016-06-15T01:28:20.776Z,16.7
2016-06-15T01:28:30.776Z,16.7
2016-06-15T01:28:40.776Z,16.7
2016-06-15T01:28:50.792Z,16.7
2016-06-15T01:29:00.792Z,16.7
2016-06-15T01:29:10.796Z,16.7
2016-06-15T01:29:20.812Z,16.8
2016-06-15T01:29:30.827Z,16.7
2016-06-15T01:29:40.812Z,16.8
2016-06-15T01:29:50.827Z,16.8
2016-06-15T01:30:00.827Z,16.8
2016-06-15T01:30:10.829Z,16.7
2016-06-15T01:30:20.845Z,16.7
2016-06-15T01:30:30.845Z,16.8
2016-06-15T01:30:40.860Z,16.8
2016-06-15T01:30:50.860Z,16.7
2016-06-15T01:31:00.876Z,16.8
2016-06-15T01:31:10.880Z,16.8
2016-06-15T01:31:20.880Z,16.8
2016-06-15T01:31:30.911Z,16.8
2016-06-15T01:31:40.896Z,16.9
2016-06-15T01:31:50.896Z,16.8
2016-06-15T01:32:00.911Z,16.9
2016-06-15T01:32:10.913Z,16.9
2016-06-15T01:32:20.913Z,16.9
2016-06-15T01:32:30.929Z,16.8
2016-06-15T01:32:40.929Z,16.8
2016-06-15T01:32:50.945Z,16.8
2016-06-15T01:33:00.976Z,16.9
2016-06-15T01:33:10.949Z,16.9
2016-06-15T01:33:20.964Z,16.9
2016-06-15T01:33:30.964Z,16.9
2016-06-15T01:33:40.964Z,16.9
2016-06-15T01:33:50.980Z,16.9
2016-06-15T01:34:00.980Z,16.8
2016-06-15T01:34:10.997Z,16.9
2016-06-15T01:34:20.997Z,16.8
2016-06-15T01:34:31.232Z,16.8
2016-06-15T01:34:41.013Z,16.8
2016-06-15T01:34:51.013Z,16.9
2016-06-15T01:35:01.013Z,16.9
2016-06-15T01:35:11.033Z,16.9
2016-06-15T01:35:21.361Z,16.8
2016-06-15T01:35:31.048Z,16.9
2016-06-15T01:35:41.048Z,16.9
2016-06-15T01:35:51.048Z,16.8
2016-06-15T01:36:01.048Z,16.8
2016-06-15T01:36:11.066Z,16.7
2016-06-15T01:36:21.066Z,16.8
2016-06-15T01:36:31.082Z,16.7
2016-06-15T01:36:41.082Z,16.7
2016-06-15T01:36:51.097Z,16.8
2016-06-15T01:37:01.097Z,16.7
2016-06-15T01:37:11.132Z,16.7
2016-06-15T01:37:21.117Z,16.7
2016-06-15T01:37:31.117Z,16.6
2016-06-15T01:37:41.132Z,16.6
2016-06-15T01:37:51.132Z,16.6
2016-06-15T01:38:01.132Z,16.6
2016-06-15T01:38:11.135Z,16.6
2016-06-15T01:38:21.151Z,16.6
2016-06-15T01:38:31.151Z,16.6
2016-06-15T01:38:41.167Z,16.6
2016-06-15T01:38:51.167Z,16.6
2016-06-15T01:39:01.167Z,16.7
2016-06-15T01:39:11.185Z,16.6
2016-06-15T01:39:21.185Z,16.6
2016-06-15T01:39:31.185Z,16.5
2016-06-15T01:39:41.201Z,16.6
2016-06-15T01:39:51.201Z,16.6
2016-06-15T01:40:01.217Z,16.6
2016-06-15T01:40:11.220Z,16.6
2016-06-15T01:40:21.220Z,16.5
2016-06-15T01:40:31.235Z,16.6
2016-06-15T01:40:41.235Z,16.6
2016-06-15T01:40:51.235Z,16.6
2016-06-15T01:41:01.266Z,16.5
2016-06-15T01:41:11.285Z,16.5
2016-06-15T01:41:21.269Z,16.5
2016-06-15T01:41:31.269Z,16.5
2016-06-15T01:41:41.285Z,16.5
2016-06-15T01:41:51.285Z,16.5
2016-06-15T01:42:01.285Z,16.5
2016-06-15T01:42:11.288Z,16.5
2016-06-15T01:42:21.319Z,16.5
2016-06-15T01:42:31.319Z,16.4
2016-06-15T01:42:41.351Z,16.5
2016-06-15T01:42:51.319Z,16.5
2016-06-15T01:43:01.319Z,16.5
2016-06-15T01:43:11.338Z,16.5
2016-06-15T01:43:21.432Z,16.5
2016-06-15T01:43:31.338Z,16.5
2016-06-15T01:43:41.354Z,16.5
2016-06-15T01:43:51.354Z,16.5
2016-06-15T01:44:01.463Z,16.5
2016-06-15T01:44:11.373Z,16.5
2016-06-15T01:44:21.373Z,16.5
2016-06-15T01:44:31.389Z,16.5
2016-06-15T01:44:41.483Z,16.6
2016-06-15T01:44:51.404Z,16.5
2016-06-15T01:45:01.404Z,16.5
2016-06-15T01:45:11.422Z,16.5
2016-06-15T01:45:21.438Z,16.5
2016-06-15T01:45:31.422Z,16.6
2016-06-15T01:45:41.422Z,16.6
2016-06-15T01:45:51.438Z,16.6
2016-06-15T01:46:01.485Z,16.5
2016-06-15T01:46:11.456Z,16.6
2016-06-15T01:46:21.456Z,16.5
2016-06-15T01:46:31.456Z,16.7
2016-06-15T01:46:41.472Z,16.5
2016-06-15T01:46:51.472Z,16.5
2016-06-15T01:47:01.472Z,16.5
2016-06-15T01:47:11.475Z,16.5
2016-06-15T01:47:21.491Z,16.5
2016-06-15T01:47:31.522Z,16.5
2016-06-15T01:47:41.506Z,16.5
2016-06-15T01:47:51.506Z,16.5
2016-06-15T01:48:01.522Z,16.5
2016-06-15T01:48:11.526Z,16.5
2016-06-15T01:48:21.526Z,16.6
2016-06-15T01:48:31.541Z,16.5
2016-06-15T01:48:41.541Z,16.5
2016-06-15T01:48:51.557Z,16.5
2016-06-15T01:49:01.557Z,16.5
2016-06-15T01:49:11.560Z,16.5
2016-06-15T01:49:21.576Z,16.5
2016-06-15T01:49:31.576Z,16.5
2016-06-15T01:49:41.576Z,16.5
2016-06-15T01:49:51.591Z,16.5
2016-06-15T01:50:01.591Z,16.5
2016-06-15T01:50:11.688Z,16.5
2016-06-15T01:50:21.610Z,16.5
2016-06-15T01:50:31.641Z,16.6
2016-06-15T01:50:41.610Z,16.5
2016-06-15T01:50:51.626Z,16.5
2016-06-15T01:51:01.938Z,16.5
2016-06-15T01:51:11.629Z,16.5
2016-06-15T01:51:21.644Z,16.5
2016-06-15T01:51:31.644Z,16.5
2016-06-15T01:51:41.660Z,16.5
2016-06-15T01:51:51.660Z,16.5
2016-06-15T01:52:01.675Z,16.4
2016-06-15T01:52:11.678Z,16.4
2016-06-15T01:52:21.678Z,16.4
2016-06-15T01:52:31.710Z,16.4
2016-06-15T01:52:41.710Z,16.4
2016-06-15T01:52:51.694Z,16.4
2016-06-15T01:53:01.710Z,16.4
2016-06-15T01:53:11.775Z,16.4
2016-06-15T01:53:21.728Z,16.4
2016-06-15T01:53:31.728Z,16.5
2016-06-15T01:53:41.728Z,16.5
2016-06-15T01:53:51.744Z,16.5
2016-06-15T01:54:01.744Z,16.4
2016-06-15T01:54:11.747Z,16.4
2016-06-15T01:54:21.747Z,16.5
2016-06-15T01:54:31.809Z,16.5
2016-06-15T01:54:41.778Z,16.4
2016-06-15T01:54:51.778Z,16.5
2016-06-15T01:55:01.778Z,16.4
2016-06-15T01:55:11.844Z,16.4
2016-06-15T01:55:21.797Z,16.5
2016-06-15T01:55:31.797Z,16.5
2016-06-15T01:55:41.797Z,16.5
2016-06-15T01:55:51.812Z,16.5
2016-06-15T01:56:01.812Z,16.5
2016-06-15T01:56:11.831Z,16.6
2016-06-15T01:56:21.831Z,16.5
2016-06-15T01:56:31.847Z,16.5
2016-06-15T01:56:41.847Z,16.5
2016-06-15T01:56:51.878Z,16.5
2016-06-15T01:57:01.878Z,16.5
2016-06-15T01:57:11.865Z,16.5
2016-06-15T01:57:21.865Z,16.5
2016-06-15T01:57:31.881Z,16.5
2016-06-15T01:57:41.881Z,16.5
2016-06-15T01:57:51.881Z,16.5
2016-06-15T01:58:01.897Z,16.6
2016-06-15T01:58:11.900Z,16.5
2016-06-15T01:58:21.915Z,16.4
2016-06-15T01:58:31.915Z,16.4
2016-06-15T01:58:41.915Z,16.4
2016-06-15T01:58:51.931Z,16.4
2016-06-15T01:59:01.962Z,16.5
2016-06-15T01:59:11.935Z,16.5
2016-06-15T01:59:21.950Z,16.5
2016-06-15T01:59:31.950Z,16.5
2016-06-15T01:59:42.029Z,16.4
2016-06-15T01:59:51.966Z,16.4
2016-06-15T02:00:01.966Z,16.4
2016-06-15T02:00:11.985Z,16.4
2016-06-15T02:00:22.032Z,16.4
2016-06-15T02:00:32.000Z,16.4
2016-06-15T02:00:42.000Z,16.4
2016-06-15T02:00:52.000Z,16.4
2016-06-15T02:01:02.032Z,16.4
2016-06-15T02:01:12.019Z,16.4
2016-06-15T02:01:22.019Z,16.4
2016-06-15T02:01:32.035Z,16.4
2016-06-15T02:01:42.050Z,16.4
2016-06-15T02:01:52.035Z,16.4
2016-06-15T02:02:02.050Z,16.4
2016-06-15T02:02:12.053Z,16.5
2016-06-15T02:02:22.069Z,16.4
2016-06-15T02:02:32.069Z,16.4
2016-06-15T02:02:42.069Z,16.5
2016-06-15T02:02:52.069Z,16.5
2016-06-15T02:03:02.084Z,16.5
2016-06-15T02:03:12.087Z,16.6
2016-06-15T02:03:22.103Z,16.5
2016-06-15T02:03:32.103Z,16.5
2016-06-15T02:03:42.119Z,16.5
2016-06-15T02:03:52.119Z,16.5
2016-06-15T02:04:02.119Z,16.5
2016-06-15T02:04:12.137Z,16.5
2016-06-15T02:04:22.137Z,16.5
2016-06-15T02:04:32.137Z,16.5
2016-06-15T02:04:42.153Z,16.5
2016-06-15T02:04:52.169Z,16.6
2016-06-15T02:05:02.169Z,16.5
2016-06-15T02:05:12.172Z,16.5
2016-06-15T02:05:22.547Z,16.4
2016-06-15T02:05:32.187Z,16.6
2016-06-15T02:05:42.187Z,16.5
2016-06-15T02:05:52.453Z,16.5
2016-06-15T02:06:02.203Z,16.5
2016-06-15T02:06:12.206Z,16.5
2016-06-15T02:06:22.206Z,16.5
2016-06-15T02:06:32.221Z,16.5
2016-06-15T02:06:42.221Z,16.5
2016-06-15T02:06:52.237Z,16.6
2016-06-15T02:07:02.237Z,16.5
2016-06-15T02:07:12.271Z,16.5
2016-06-15T02:07:22.256Z,16.5
2016-06-15T02:07:32.287Z,16.5
2016-06-15T02:07:42.271Z,16.5
2016-06-15T02:07:52.271Z,16.5
2016-06-15T02:08:02.271Z,16.5
2016-06-15T02:08:12.306Z,16.4
2016-06-15T02:08:22.290Z,16.4
2016-06-15T02:08:32.290Z,16.4
2016-06-15T02:08:42.306Z,16.4
2016-06-15T02:08:52.384Z,16.4
2016-06-15T02:09:02.306Z,16.4
2016-06-15T02:09:12.324Z,16.4
2016-06-15T02:09:22.324Z,16.4
2016-06-15T02:09:32.387Z,16.4
2016-06-15T02:09:42.340Z,16.4
2016-06-15T02:09:52.340Z,16.4
2016-06-15T02:10:02.355Z,16.4
2016-06-15T02:10:12.358Z,16.4
2016-06-15T02:10:22.358Z,16.4
2016-06-15T02:10:32.374Z,16.3
2016-06-15T02:10:42.374Z,16.4
2016-06-15T02:10:52.390Z,16.3
2016-06-15T02:11:02.390Z,16.4
2016-06-15T02:11:12.394Z,16.3
2016-06-15T02:11:22.409Z,16.3
2016-06-15T02:11:32.409Z,16.4
2016-06-15T02:11:42.409Z,16.3
2016-06-15T02:11:52.425Z,16.4
2016-06-15T02:12:02.425Z,16.4
2016-06-15T02:12:12.428Z,16.4
2016-06-15T02:12:22.459Z,16.3
2016-06-15T02:12:32.444Z,16.4
2016-06-15T02:12:42.459Z,16.4
2016-06-15T02:12:52.459Z,16.4
2016-06-15T02:13:02.475Z,16.2
2016-06-15T02:13:12.478Z,16.4
2016-06-15T02:13:22.478Z,16.4